sensor_id;sensor_type;location;lat;lon;timestamp;P1;durP1;ratioP1;P2;durP2;ratioP2
12745;SDS011;6437;53.686;10.030;2023-04-25T00:01:24;20.98;;;3.30;;
12745;SDS011;6437;53.686;10.030;2023-04-25T00:03:26;17.05;;;3.13;;
12745;SDS011;6437;53.686;10.030;2023-04-25T00:05:29;9.63;;;2.17;;
12745;SDS011;6437;53.686;10.030;2023-04-25T00:07:31;17.98;;;2.97;;
12745;SDS011;6437;53.686;10.030;2023-04-25T00:09:33;21.45;;;3.92;;
12745;SDS011;6437;53.686;10.030;2023-04-25T00:11:35;25.15;;;3.78;;
12745;SDS011;6437;53.686;10.030;2023-04-25T00:13:37;22.08;;;3.42;;
12745;SDS011;6437;53.686;10.030;2023-04-25T00:15:41;25.00;;;3.83;;
12745;SDS011;6437;53.686;10.030;2023-04-25T00:17:44;24.63;;;3.53;;
12745;SDS011;6437;53.686;10.030;2023-04-25T00:19:46;28.90;;;3.42;;
12745;SDS011;6437;53.686;10.030;2023-04-25T00:21:51;19.45;;;3.53;;
12745;SDS011;6437;53.686;10.030;2023-04-25T00:23:53;38.53;;;3.95;;
12745;SDS011;6437;53.686;10.030;2023-04-25T00:27:57;33.15;;;3.42;;
12745;SDS011;6437;53.686;10.030;2023-04-25T00:29:59;18.17;;;2.60;;
12745;SDS011;6437;53.686;10.030;2023-04-25T00:32:01;25.77;;;2.70;;
12745;SDS011;6437;53.686;10.030;2023-04-25T00:34:05;23.42;;;3.97;;
12745;SDS011;6437;53.686;10.030;2023-04-25T00:36:08;34.28;;;3.17;;
12745;SDS011;6437;53.686;10.030;2023-04-25T00:38:10;29.52;;;4.20;;
12745;SDS011;6437;53.686;10.030;2023-04-25T00:40:11;39.92;;;2.97;;
12745;SDS011;6437;53.686;10.030;2023-04-25T00:42:14;22.92;;;3.50;;
12745;SDS011;6437;53.686;10.030;2023-04-25T00:46:18;25.38;;;3.95;;
12745;SDS011;6437;53.686;10.030;2023-04-25T00:48:20;34.65;;;4.15;;
12745;SDS011;6437;53.686;10.030;2023-04-25T00:50:24;20.73;;;3.85;;
12745;SDS011;6437;53.686;10.030;2023-04-25T00:52:26;31.00;;;5.40;;
12745;SDS011;6437;53.686;10.030;2023-04-25T00:54:28;33.95;;;3.53;;
12745;SDS011;6437;53.686;10.030;2023-04-25T00:56:30;29.70;;;3.67;;
12745;SDS011;6437;53.686;10.030;2023-04-25T00:58:32;26.85;;;4.43;;
12745;SDS011;6437;53.686;10.030;2023-04-25T01:00:34;39.67;;;5.32;;
12745;SDS011;6437;53.686;10.030;2023-04-25T01:02:37;23.60;;;4.25;;
12745;SDS011;6437;53.686;10.030;2023-04-25T01:04:39;26.80;;;3.10;;
12745;SDS011;6437;53.686;10.030;2023-04-25T01:06:42;31.33;;;4.38;;
12745;SDS011;6437;53.686;10.030;2023-04-25T01:08:44;44.80;;;4.90;;
12745;SDS011;6437;53.686;10.030;2023-04-25T01:10:46;23.23;;;3.40;;
12745;SDS011;6437;53.686;10.030;2023-04-25T01:12:50;30.55;;;4.78;;
12745;SDS011;6437;53.686;10.030;2023-04-25T01:14:53;40.00;;;3.80;;
12745;SDS011;6437;53.686;10.030;2023-04-25T01:16:55;34.80;;;4.32;;
12745;SDS011;6437;53.686;10.030;2023-04-25T01:18:57;35.58;;;4.82;;
12745;SDS011;6437;53.686;10.030;2023-04-25T01:21:03;21.77;;;4.18;;
12745;SDS011;6437;53.686;10.030;2023-04-25T01:23:08;25.20;;;4.18;;
12745;SDS011;6437;53.686;10.030;2023-04-25T01:25:11;25.05;;;4.05;;
12745;SDS011;6437;53.686;10.030;2023-04-25T01:27:13;26.58;;;3.92;;
12745;SDS011;6437;53.686;10.030;2023-04-25T01:29:15;35.60;;;3.83;;
12745;SDS011;6437;53.686;10.030;2023-04-25T01:31:17;34.55;;;5.82;;
12745;SDS011;6437;53.686;10.030;2023-04-25T01:33:20;42.67;;;4.80;;
12745;SDS011;6437;53.686;10.030;2023-04-25T01:35:23;29.02;;;4.10;;
12745;SDS011;6437;53.686;10.030;2023-04-25T01:39:28;29.40;;;4.47;;
12745;SDS011;6437;53.686;10.030;2023-04-25T01:43:32;44.90;;;5.20;;
12745;SDS011;6437;53.686;10.030;2023-04-25T01:45:34;32.83;;;4.45;;
12745;SDS011;6437;53.686;10.030;2023-04-25T01:47:36;22.48;;;3.65;;
12745;SDS011;6437;53.686;10.030;2023-04-25T01:49:39;23.02;;;4.15;;
12745;SDS011;6437;53.686;10.030;2023-04-25T01:51:41;35.47;;;3.75;;
12745;SDS011;6437;53.686;10.030;2023-04-25T01:53:44;25.77;;;4.07;;
12745;SDS011;6437;53.686;10.030;2023-04-25T01:55:46;40.83;;;4.57;;
12745;SDS011;6437;53.686;10.030;2023-04-25T01:57:51;31.85;;;3.85;;
12745;SDS011;6437;53.686;10.030;2023-04-25T01:59:53;30.98;;;4.70;;
12745;SDS011;6437;53.686;10.030;2023-04-25T02:02:00;27.27;;;4.43;;
12745;SDS011;6437;53.686;10.030;2023-04-25T02:04:03;28.25;;;4.45;;
12745;SDS011;6437;53.686;10.030;2023-04-25T02:08:08;20.17;;;3.67;;
12745;SDS011;6437;53.686;10.030;2023-04-25T02:10:11;35.55;;;4.13;;
12745;SDS011;6437;53.686;10.030;2023-04-25T02:12:13;35.50;;;4.70;;
12745;SDS011;6437;53.686;10.030;2023-04-25T02:14:15;31.65;;;3.47;;
12745;SDS011;6437;53.686;10.030;2023-04-25T02:16:17;32.20;;;3.83;;
12745;SDS011;6437;53.686;10.030;2023-04-25T02:18:19;28.23;;;3.22;;
12745;SDS011;6437;53.686;10.030;2023-04-25T02:20:21;24.17;;;3.00;;
12745;SDS011;6437;53.686;10.030;2023-04-25T02:22:24;31.95;;;5.15;;
12745;SDS011;6437;53.686;10.030;2023-04-25T02:26:30;36.83;;;4.90;;
12745;SDS011;6437;53.686;10.030;2023-04-25T02:28:32;29.98;;;3.92;;
12745;SDS011;6437;53.686;10.030;2023-04-25T02:30:33;30.75;;;3.80;;
12745;SDS011;6437;53.686;10.030;2023-04-25T02:32:36;23.88;;;3.47;;
12745;SDS011;6437;53.686;10.030;2023-04-25T02:34:37;32.38;;;4.30;;
12745;SDS011;6437;53.686;10.030;2023-04-25T02:36:39;28.98;;;3.58;;
12745;SDS011;6437;53.686;10.030;2023-04-25T02:38:41;39.72;;;4.38;;
12745;SDS011;6437;53.686;10.030;2023-04-25T02:40:43;29.83;;;2.72;;
12745;SDS011;6437;53.686;10.030;2023-04-25T02:42:46;25.63;;;3.92;;
12745;SDS011;6437;53.686;10.030;2023-04-25T02:44:47;19.40;;;3.15;;
12745;SDS011;6437;53.686;10.030;2023-04-25T02:46:50;22.45;;;3.70;;
12745;SDS011;6437;53.686;10.030;2023-04-25T02:48:56;25.27;;;3.80;;
12745;SDS011;6437;53.686;10.030;2023-04-25T02:51:01;26.80;;;3.92;;
12745;SDS011;6437;53.686;10.030;2023-04-25T02:53:03;44.70;;;5.55;;
12745;SDS011;6437;53.686;10.030;2023-04-25T02:55:05;35.85;;;4.07;;
12745;SDS011;6437;53.686;10.030;2023-04-25T02:57:08;38.88;;;5.13;;
12745;SDS011;6437;53.686;10.030;2023-04-25T02:59:11;30.05;;;4.35;;
12745;SDS011;6437;53.686;10.030;2023-04-25T03:01:13;31.02;;;4.05;;
12745;SDS011;6437;53.686;10.030;2023-04-25T03:03:15;37.72;;;4.65;;
12745;SDS011;6437;53.686;10.030;2023-04-25T03:05:17;17.67;;;2.55;;
12745;SDS011;6437;53.686;10.030;2023-04-25T03:07:19;31.10;;;3.42;;
12745;SDS011;6437;53.686;10.030;2023-04-25T03:09:21;43.83;;;4.70;;
12745;SDS011;6437;53.686;10.030;2023-04-25T03:11:24;28.55;;;3.65;;
12745;SDS011;6437;53.686;10.030;2023-04-25T03:13:26;29.33;;;4.25;;
12745;SDS011;6437;53.686;10.030;2023-04-25T03:15:31;31.20;;;4.10;;
12745;SDS011;6437;53.686;10.030;2023-04-25T03:17:33;29.20;;;3.83;;
12745;SDS011;6437;53.686;10.030;2023-04-25T03:19:34;30.00;;;4.32;;
12745;SDS011;6437;53.686;10.030;2023-04-25T03:21:36;28.10;;;4.18;;
12745;SDS011;6437;53.686;10.030;2023-04-25T03:23:38;33.55;;;4.50;;
12745;SDS011;6437;53.686;10.030;2023-04-25T03:25:40;22.42;;;3.75;;
12745;SDS011;6437;53.686;10.030;2023-04-25T03:27:42;36.30;;;2.55;;
12745;SDS011;6437;53.686;10.030;2023-04-25T03:29:43;27.83;;;3.17;;
12745;SDS011;6437;53.686;10.030;2023-04-25T03:31:47;35.35;;;4.75;;
12745;SDS011;6437;53.686;10.030;2023-04-25T03:33:48;21.80;;;3.38;;
12745;SDS011;6437;53.686;10.030;2023-04-25T03:35:53;26.73;;;3.28;;
12745;SDS011;6437;53.686;10.030;2023-04-25T03:37:55;29.10;;;3.97;;
12745;SDS011;6437;53.686;10.030;2023-04-25T03:39:57;42.55;;;4.05;;
12745;SDS011;6437;53.686;10.030;2023-04-25T03:41:59;29.73;;;2.80;;
12745;SDS011;6437;53.686;10.030;2023-04-25T03:44:01;27.10;;;3.95;;
12745;SDS011;6437;53.686;10.030;2023-04-25T03:46:02;43.38;;;4.35;;
12745;SDS011;6437;53.686;10.030;2023-04-25T03:48:06;32.33;;;4.78;;
12745;SDS011;6437;53.686;10.030;2023-04-25T03:50:08;26.67;;;4.30;;
12745;SDS011;6437;53.686;10.030;2023-04-25T03:52:10;29.55;;;4.05;;
12745;SDS011;6437;53.686;10.030;2023-04-25T03:54:12;33.67;;;3.65;;
12745;SDS011;6437;53.686;10.030;2023-04-25T03:56:14;27.08;;;3.33;;
12745;SDS011;6437;53.686;10.030;2023-04-25T03:58:15;32.65;;;3.92;;
12745;SDS011;6437;53.686;10.030;2023-04-25T04:00:17;24.73;;;2.72;;
12745;SDS011;6437;53.686;10.030;2023-04-25T04:02:22;39.25;;;5.22;;
12745;SDS011;6437;53.686;10.030;2023-04-25T04:04:25;24.05;;;2.53;;
12745;SDS011;6437;53.686;10.030;2023-04-25T04:06:27;17.75;;;3.13;;
12745;SDS011;6437;53.686;10.030;2023-04-25T04:10:31;38.75;;;3.45;;
12745;SDS011;6437;53.686;10.030;2023-04-25T04:12:33;23.23;;;3.88;;
12745;SDS011;6437;53.686;10.030;2023-04-25T04:14:34;20.60;;;3.03;;
12745;SDS011;6437;53.686;10.030;2023-04-25T04:16:36;24.55;;;2.92;;
12745;SDS011;6437;53.686;10.030;2023-04-25T04:18:38;20.02;;;2.60;;
12745;SDS011;6437;53.686;10.030;2023-04-25T04:20:44;27.88;;;3.42;;
12745;SDS011;6437;53.686;10.030;2023-04-25T04:22:46;27.17;;;3.85;;
12745;SDS011;6437;53.686;10.030;2023-04-25T04:24:48;31.08;;;4.32;;
12745;SDS011;6437;53.686;10.030;2023-04-25T04:26:55;29.70;;;3.10;;
12745;SDS011;6437;53.686;10.030;2023-04-25T04:28:56;21.60;;;2.53;;
12745;SDS011;6437;53.686;10.030;2023-04-25T04:30:59;25.33;;;3.28;;
12745;SDS011;6437;53.686;10.030;2023-04-25T04:33:02;21.20;;;3.58;;
12745;SDS011;6437;53.686;10.030;2023-04-25T04:35:05;26.38;;;3.75;;
12745;SDS011;6437;53.686;10.030;2023-04-25T04:37:10;29.80;;;2.33;;
12745;SDS011;6437;53.686;10.030;2023-04-25T04:39:13;26.77;;;3.40;;
12745;SDS011;6437;53.686;10.030;2023-04-25T04:41:15;30.02;;;2.85;;
12745;SDS011;6437;53.686;10.030;2023-04-25T04:43:17;23.77;;;2.47;;
12745;SDS011;6437;53.686;10.030;2023-04-25T04:45:19;14.10;;;2.35;;
12745;SDS011;6437;53.686;10.030;2023-04-25T04:47:22;27.00;;;4.32;;
12745;SDS011;6437;53.686;10.030;2023-04-25T04:49:24;25.33;;;3.05;;
12745;SDS011;6437;53.686;10.030;2023-04-25T04:51:26;30.98;;;2.88;;
12745;SDS011;6437;53.686;10.030;2023-04-25T04:53:29;15.88;;;1.92;;
12745;SDS011;6437;53.686;10.030;2023-04-25T04:55:31;27.02;;;3.03;;
12745;SDS011;6437;53.686;10.030;2023-04-25T04:57:34;21.15;;;2.50;;
12745;SDS011;6437;53.686;10.030;2023-04-25T04:59:36;19.13;;;1.55;;
12745;SDS011;6437;53.686;10.030;2023-04-25T05:01:38;30.95;;;3.70;;
12745;SDS011;6437;53.686;10.030;2023-04-25T05:03:40;21.45;;;2.67;;
12745;SDS011;6437;53.686;10.030;2023-04-25T05:05:42;22.27;;;3.08;;
12745;SDS011;6437;53.686;10.030;2023-04-25T05:07:44;17.27;;;2.20;;
12745;SDS011;6437;53.686;10.030;2023-04-25T05:09:47;25.25;;;3.67;;
12745;SDS011;6437;53.686;10.030;2023-04-25T05:11:49;21.77;;;3.08;;
12745;SDS011;6437;53.686;10.030;2023-04-25T05:13:54;21.40;;;3.08;;
12745;SDS011;6437;53.686;10.030;2023-04-25T05:15:56;18.63;;;3.33;;
12745;SDS011;6437;53.686;10.030;2023-04-25T05:20:00;24.05;;;2.78;;
12745;SDS011;6437;53.686;10.030;2023-04-25T05:22:02;16.02;;;2.25;;
12745;SDS011;6437;53.686;10.030;2023-04-25T05:24:04;23.10;;;1.95;;
12745;SDS011;6437;53.686;10.030;2023-04-25T05:26:08;15.18;;;2.90;;
12745;SDS011;6437;53.686;10.030;2023-04-25T05:28:13;16.05;;;1.95;;
12745;SDS011;6437;53.686;10.030;2023-04-25T05:30:15;16.38;;;1.40;;
12745;SDS011;6437;53.686;10.030;2023-04-25T05:32:22;12.27;;;1.98;;
12745;SDS011;6437;53.686;10.030;2023-04-25T05:34:25;17.05;;;2.40;;
12745;SDS011;6437;53.686;10.030;2023-04-25T05:36:26;14.85;;;1.58;;
12745;SDS011;6437;53.686;10.030;2023-04-25T05:38:28;11.13;;;1.60;;
12745;SDS011;6437;53.686;10.030;2023-04-25T05:40:30;18.48;;;2.65;;
12745;SDS011;6437;53.686;10.030;2023-04-25T05:42:33;14.77;;;1.42;;
12745;SDS011;6437;53.686;10.030;2023-04-25T05:44:35;13.35;;;1.35;;
12745;SDS011;6437;53.686;10.030;2023-04-25T05:48:39;13.48;;;1.27;;
12745;SDS011;6437;53.686;10.030;2023-04-25T05:52:43;8.75;;;1.75;;
12745;SDS011;6437;53.686;10.030;2023-04-25T05:54:45;20.90;;;1.95;;
12745;SDS011;6437;53.686;10.030;2023-04-25T05:56:47;15.98;;;1.90;;
12745;SDS011;6437;53.686;10.030;2023-04-25T05:58:50;17.23;;;2.05;;
12745;SDS011;6437;53.686;10.030;2023-04-25T06:00:56;19.13;;;2.35;;
12745;SDS011;6437;53.686;10.030;2023-04-25T06:02:58;14.68;;;1.70;;
12745;SDS011;6437;53.686;10.030;2023-04-25T06:05:00;13.05;;;1.77;;
12745;SDS011;6437;53.686;10.030;2023-04-25T06:07:03;18.17;;;1.90;;
12745;SDS011;6437;53.686;10.030;2023-04-25T06:09:07;22.63;;;1.75;;
12745;SDS011;6437;53.686;10.030;2023-04-25T06:13:11;10.52;;;1.10;;
12745;SDS011;6437;53.686;10.030;2023-04-25T06:15:14;24.35;;;1.75;;
12745;SDS011;6437;53.686;10.030;2023-04-25T06:17:16;26.55;;;2.83;;
12745;SDS011;6437;53.686;10.030;2023-04-25T06:19:19;15.55;;;2.03;;
12745;SDS011;6437;53.686;10.030;2023-04-25T06:21:21;25.02;;;1.95;;
12745;SDS011;6437;53.686;10.030;2023-04-25T06:23:22;23.40;;;1.85;;
12745;SDS011;6437;53.686;10.030;2023-04-25T06:25:24;23.90;;;2.70;;
12745;SDS011;6437;53.686;10.030;2023-04-25T06:27:26;24.13;;;1.88;;
12745;SDS011;6437;53.686;10.030;2023-04-25T06:29:28;24.30;;;2.28;;
12745;SDS011;6437;53.686;10.030;2023-04-25T06:31:32;20.10;;;1.42;;
12745;SDS011;6437;53.686;10.030;2023-04-25T06:33:33;20.25;;;2.70;;
12745;SDS011;6437;53.686;10.030;2023-04-25T06:35:35;21.38;;;2.63;;
12745;SDS011;6437;53.686;10.030;2023-04-25T06:37:37;21.58;;;2.65;;
12745;SDS011;6437;53.686;10.030;2023-04-25T06:39:41;22.13;;;2.13;;
12745;SDS011;6437;53.686;10.030;2023-04-25T06:43:45;25.75;;;3.17;;
12745;SDS011;6437;53.686;10.030;2023-04-25T06:45:46;25.13;;;2.65;;
12745;SDS011;6437;53.686;10.030;2023-04-25T06:47:50;25.30;;;3.78;;
12745;SDS011;6437;53.686;10.030;2023-04-25T06:49:55;24.13;;;2.67;;
12745;SDS011;6437;53.686;10.030;2023-04-25T06:51:59;28.55;;;2.80;;
12745;SDS011;6437;53.686;10.030;2023-04-25T06:54:00;21.20;;;2.15;;
12745;SDS011;6437;53.686;10.030;2023-04-25T06:56:04;21.98;;;1.85;;
12745;SDS011;6437;53.686;10.030;2023-04-25T06:58:06;13.68;;;2.33;;
12745;SDS011;6437;53.686;10.030;2023-04-25T07:00:09;17.08;;;2.70;;
12745;SDS011;6437;53.686;10.030;2023-04-25T07:02:11;30.33;;;2.22;;
12745;SDS011;6437;53.686;10.030;2023-04-25T07:04:15;24.02;;;2.17;;
12745;SDS011;6437;53.686;10.030;2023-04-25T07:06:17;23.90;;;2.22;;
12745;SDS011;6437;53.686;10.030;2023-04-25T07:10:21;18.07;;;1.50;;
12745;SDS011;6437;53.686;10.030;2023-04-25T07:12:23;18.55;;;2.05;;
12745;SDS011;6437;53.686;10.030;2023-04-25T07:14:25;16.92;;;2.25;;
12745;SDS011;6437;53.686;10.030;2023-04-25T07:16:26;20.48;;;2.05;;
12745;SDS011;6437;53.686;10.030;2023-04-25T07:18:28;15.60;;;1.20;;
12745;SDS011;6437;53.686;10.030;2023-04-25T07:20:32;12.90;;;1.00;;
12745;SDS011;6437;53.686;10.030;2023-04-25T07:22:34;12.60;;;0.93;;
12745;SDS011;6437;53.686;10.030;2023-04-25T07:24:35;8.13;;;0.70;;
12745;SDS011;6437;53.686;10.030;2023-04-25T07:26:37;16.85;;;1.70;;
12745;SDS011;6437;53.686;10.030;2023-04-25T07:28:39;19.05;;;1.42;;
12745;SDS011;6437;53.686;10.030;2023-04-25T07:30:41;12.73;;;1.17;;
12745;SDS011;6437;53.686;10.030;2023-04-25T07:32:43;14.00;;;1.83;;
12745;SDS011;6437;53.686;10.030;2023-04-25T07:34:45;9.38;;;1.25;;
12745;SDS011;6437;53.686;10.030;2023-04-25T07:36:48;8.98;;;0.70;;
12745;SDS011;6437;53.686;10.030;2023-04-25T07:38:53;12.48;;;1.05;;
12745;SDS011;6437;53.686;10.030;2023-04-25T07:40:55;17.98;;;1.23;;
12745;SDS011;6437;53.686;10.030;2023-04-25T07:42:57;12.27;;;2.97;;
12745;SDS011;6437;53.686;10.030;2023-04-25T07:44:59;16.58;;;1.40;;
12745;SDS011;6437;53.686;10.030;2023-04-25T07:47:02;17.55;;;1.55;;
12745;SDS011;6437;53.686;10.030;2023-04-25T07:49:04;11.57;;;1.23;;
12745;SDS011;6437;53.686;10.030;2023-04-25T07:51:06;18.77;;;1.50;;
12745;SDS011;6437;53.686;10.030;2023-04-25T07:53:09;17.00;;;1.63;;
12745;SDS011;6437;53.686;10.030;2023-04-25T07:55:11;19.58;;;2.10;;
12745;SDS011;6437;53.686;10.030;2023-04-25T07:57:13;16.40;;;1.80;;
12745;SDS011;6437;53.686;10.030;2023-04-25T07:59:15;13.05;;;1.80;;
12745;SDS011;6437;53.686;10.030;2023-04-25T08:01:16;11.45;;;1.88;;
12745;SDS011;6437;53.686;10.030;2023-04-25T08:03:19;16.35;;;1.95;;
12745;SDS011;6437;53.686;10.030;2023-04-25T08:05:21;13.73;;;2.17;;
12745;SDS011;6437;53.686;10.030;2023-04-25T08:09:26;34.50;;;3.58;;
12745;SDS011;6437;53.686;10.030;2023-04-25T08:11:29;24.80;;;2.70;;
12745;SDS011;6437;53.686;10.030;2023-04-25T08:13:31;17.73;;;2.03;;
12745;SDS011;6437;53.686;10.030;2023-04-25T08:15:33;14.23;;;1.33;;
12745;SDS011;6437;53.686;10.030;2023-04-25T08:17:35;17.42;;;2.17;;
12745;SDS011;6437;53.686;10.030;2023-04-25T08:19:37;16.02;;;1.23;;
12745;SDS011;6437;53.686;10.030;2023-04-25T08:23:41;11.30;;;0.68;;
12745;SDS011;6437;53.686;10.030;2023-04-25T08:25:44;13.60;;;0.80;;
12745;SDS011;6437;53.686;10.030;2023-04-25T08:27:45;12.68;;;0.80;;
12745;SDS011;6437;53.686;10.030;2023-04-25T08:29:47;8.30;;;1.30;;
12745;SDS011;6437;53.686;10.030;2023-04-25T08:31:49;13.93;;;1.13;;
12745;SDS011;6437;53.686;10.030;2023-04-25T08:33:52;15.55;;;2.13;;
12745;SDS011;6437;53.686;10.030;2023-04-25T08:35:58;5.88;;;0.75;;
12745;SDS011;6437;53.686;10.030;2023-04-25T08:37:59;9.23;;;1.00;;
12745;SDS011;6437;53.686;10.030;2023-04-25T08:40:01;14.82;;;0.93;;
12745;SDS011;6437;53.686;10.030;2023-04-25T08:42:08;12.38;;;0.98;;
12745;SDS011;6437;53.686;10.030;2023-04-25T08:44:11;12.00;;;1.48;;
12745;SDS011;6437;53.686;10.030;2023-04-25T08:48:18;17.85;;;1.17;;
12745;SDS011;6437;53.686;10.030;2023-04-25T08:50:19;11.38;;;1.23;;
12745;SDS011;6437;53.686;10.030;2023-04-25T08:52:27;18.08;;;1.42;;
12745;SDS011;6437;53.686;10.030;2023-04-25T08:54:33;20.42;;;2.55;;
12745;SDS011;6437;53.686;10.030;2023-04-25T08:56:37;15.02;;;1.45;;
12745;SDS011;6437;53.686;10.030;2023-04-25T08:58:43;27.27;;;2.20;;
12745;SDS011;6437;53.686;10.030;2023-04-25T09:00:45;11.77;;;1.60;;
12745;SDS011;6437;53.686;10.030;2023-04-25T09:02:48;19.05;;;2.60;;
12745;SDS011;6437;53.686;10.030;2023-04-25T09:04:50;11.25;;;1.95;;
12745;SDS011;6437;53.686;10.030;2023-04-25T09:07:00;17.88;;;1.73;;
12745;SDS011;6437;53.686;10.030;2023-04-25T09:09:03;19.63;;;1.77;;
12745;SDS011;6437;53.686;10.030;2023-04-25T09:11:06;13.23;;;1.45;;
12745;SDS011;6437;53.686;10.030;2023-04-25T09:15:12;19.20;;;0.98;;
12745;SDS011;6437;53.686;10.030;2023-04-25T09:17:15;14.82;;;1.50;;
12745;SDS011;6437;53.686;10.030;2023-04-25T09:19:20;20.40;;;1.42;;
12745;SDS011;6437;53.686;10.030;2023-04-25T09:21:23;12.82;;;1.00;;
12745;SDS011;6437;53.686;10.030;2023-04-25T09:23:25;13.13;;;1.30;;
12745;SDS011;6437;53.686;10.030;2023-04-25T09:25:27;19.80;;;1.63;;
12745;SDS011;6437;53.686;10.030;2023-04-25T09:27:36;19.63;;;1.50;;
12745;SDS011;6437;53.686;10.030;2023-04-25T09:29:49;14.60;;;1.27;;
12745;SDS011;6437;53.686;10.030;2023-04-25T09:32:12;27.20;;;3.58;;
12745;SDS011;6437;53.686;10.030;2023-04-25T09:34:16;9.98;;;1.15;;
12745;SDS011;6437;53.686;10.030;2023-04-25T09:36:18;9.85;;;1.77;;
12745;SDS011;6437;53.686;10.030;2023-04-25T09:38:28;20.95;;;2.25;;
12745;SDS011;6437;53.686;10.030;2023-04-25T09:40:31;11.20;;;1.65;;
12745;SDS011;6437;53.686;10.030;2023-04-25T09:42:33;12.32;;;1.52;;
12745;SDS011;6437;53.686;10.030;2023-04-25T09:44:35;13.35;;;0.88;;
12745;SDS011;6437;53.686;10.030;2023-04-25T09:48:41;23.13;;;0.82;;
12745;SDS011;6437;53.686;10.030;2023-04-25T09:51:03;17.40;;;1.63;;
12745;SDS011;6437;53.686;10.030;2023-04-25T09:53:06;11.77;;;1.20;;
12745;SDS011;6437;53.686;10.030;2023-04-25T09:55:08;17.05;;;1.35;;
12745;SDS011;6437;53.686;10.030;2023-04-25T09:57:11;11.63;;;1.40;;
12745;SDS011;6437;53.686;10.030;2023-04-25T09:59:14;17.65;;;0.85;;
12745;SDS011;6437;53.686;10.030;2023-04-25T10:01:16;7.55;;;0.70;;
12745;SDS011;6437;53.686;10.030;2023-04-25T10:03:18;13.93;;;1.25;;
12745;SDS011;6437;53.686;10.030;2023-04-25T10:05:25;11.20;;;1.08;;
12745;SDS011;6437;53.686;10.030;2023-04-25T10:07:29;12.20;;;0.85;;
12745;SDS011;6437;53.686;10.030;2023-04-25T10:09:33;15.98;;;1.23;;
12745;SDS011;6437;53.686;10.030;2023-04-25T10:11:37;6.28;;;0.82;;
12745;SDS011;6437;53.686;10.030;2023-04-25T10:13:40;7.78;;;1.00;;
12745;SDS011;6437;53.686;10.030;2023-04-25T10:15:43;10.30;;;0.70;;
12745;SDS011;6437;53.686;10.030;2023-04-25T10:19:48;12.20;;;1.05;;
12745;SDS011;6437;53.686;10.030;2023-04-25T10:21:53;6.38;;;0.73;;
12745;SDS011;6437;53.686;10.030;2023-04-25T10:24:04;12.10;;;1.25;;
12745;SDS011;6437;53.686;10.030;2023-04-25T10:26:06;9.57;;;0.82;;
12745;SDS011;6437;53.686;10.030;2023-04-25T10:28:12;17.05;;;1.17;;
12745;SDS011;6437;53.686;10.030;2023-04-25T10:30:14;7.72;;;1.23;;
12745;SDS011;6437;53.686;10.030;2023-04-25T10:32:16;21.33;;;1.42;;
12745;SDS011;6437;53.686;10.030;2023-04-25T10:34:18;12.63;;;1.38;;
12745;SDS011;6437;53.686;10.030;2023-04-25T10:38:24;11.75;;;1.42;;
12745;SDS011;6437;53.686;10.030;2023-04-25T10:40:27;22.05;;;1.50;;
12745;SDS011;6437;53.686;10.030;2023-04-25T10:42:30;16.38;;;0.93;;
12745;SDS011;6437;53.686;10.030;2023-04-25T10:44:31;10.73;;;0.77;;
12745;SDS011;6437;53.686;10.030;2023-04-25T10:46:33;15.07;;;1.48;;
12745;SDS011;6437;53.686;10.030;2023-04-25T10:50:38;12.95;;;0.90;;
12745;SDS011;6437;53.686;10.030;2023-04-25T10:52:40;16.45;;;1.40;;
12745;SDS011;6437;53.686;10.030;2023-04-25T10:54:43;7.65;;;0.77;;
12745;SDS011;6437;53.686;10.030;2023-04-25T10:56:48;12.27;;;0.88;;
12745;SDS011;6437;53.686;10.030;2023-04-25T10:58:50;19.05;;;1.58;;
12745;SDS011;6437;53.686;10.030;2023-04-25T11:00:51;11.48;;;1.45;;
12745;SDS011;6437;53.686;10.030;2023-04-25T11:02:57;13.32;;;1.27;;
12745;SDS011;6437;53.686;10.030;2023-04-25T11:05:00;24.58;;;1.80;;
12745;SDS011;6437;53.686;10.030;2023-04-25T11:07:06;17.85;;;1.80;;
12745;SDS011;6437;53.686;10.030;2023-04-25T11:09:11;14.20;;;1.13;;
12745;SDS011;6437;53.686;10.030;2023-04-25T11:11:15;21.92;;;1.38;;
12745;SDS011;6437;53.686;10.030;2023-04-25T11:13:19;9.13;;;0.95;;
12745;SDS011;6437;53.686;10.030;2023-04-25T11:15:21;10.43;;;1.15;;
12745;SDS011;6437;53.686;10.030;2023-04-25T11:19:26;7.00;;;0.60;;
12745;SDS011;6437;53.686;10.030;2023-04-25T11:21:29;5.90;;;0.50;;
12745;SDS011;6437;53.686;10.030;2023-04-25T11:23:32;6.03;;;0.55;;
12745;SDS011;6437;53.686;10.030;2023-04-25T11:25:35;5.80;;;0.93;;
12745;SDS011;6437;53.686;10.030;2023-04-25T11:27:39;8.52;;;0.77;;
12745;SDS011;6437;53.686;10.030;2023-04-25T11:29:51;13.95;;;0.77;;
12745;SDS011;6437;53.686;10.030;2023-04-25T11:31:56;11.05;;;0.73;;
12745;SDS011;6437;53.686;10.030;2023-04-25T11:34:00;9.25;;;0.77;;
12745;SDS011;6437;53.686;10.030;2023-04-25T11:36:02;15.05;;;1.45;;
12745;SDS011;6437;53.686;10.030;2023-04-25T11:38:05;5.95;;;0.60;;
12745;SDS011;6437;53.686;10.030;2023-04-25T11:40:07;11.60;;;0.93;;
12745;SDS011;6437;53.686;10.030;2023-04-25T11:42:09;13.15;;;1.35;;
12745;SDS011;6437;53.686;10.030;2023-04-25T11:44:13;13.30;;;1.00;;
12745;SDS011;6437;53.686;10.030;2023-04-25T11:46:17;9.65;;;1.30;;
12745;SDS011;6437;53.686;10.030;2023-04-25T11:48:20;13.40;;;1.25;;
12745;SDS011;6437;53.686;10.030;2023-04-25T11:50:21;15.20;;;1.45;;
12745;SDS011;6437;53.686;10.030;2023-04-25T11:52:23;12.75;;;0.80;;
12745;SDS011;6437;53.686;10.030;2023-04-25T11:54:25;13.95;;;0.63;;
12745;SDS011;6437;53.686;10.030;2023-04-25T11:56:27;7.78;;;1.20;;
12745;SDS011;6437;53.686;10.030;2023-04-25T11:58:30;5.82;;;0.98;;
12745;SDS011;6437;53.686;10.030;2023-04-25T12:00:34;11.48;;;0.90;;
12745;SDS011;6437;53.686;10.030;2023-04-25T12:02:36;5.10;;;0.45;;
12745;SDS011;6437;53.686;10.030;2023-04-25T12:04:38;7.57;;;0.60;;
12745;SDS011;6437;53.686;10.030;2023-04-25T12:06:43;11.07;;;1.25;;
12745;SDS011;6437;53.686;10.030;2023-04-25T12:09:03;12.68;;;1.33;;
12745;SDS011;6437;53.686;10.030;2023-04-25T12:11:06;9.02;;;0.90;;
12745;SDS011;6437;53.686;10.030;2023-04-25T12:13:22;9.82;;;1.15;;
12745;SDS011;6437;53.686;10.030;2023-04-25T12:15:25;6.85;;;1.08;;
12745;SDS011;6437;53.686;10.030;2023-04-25T12:17:28;11.63;;;1.13;;
12745;SDS011;6437;53.686;10.030;2023-04-25T12:19:33;10.15;;;0.75;;
12745;SDS011;6437;53.686;10.030;2023-04-25T12:21:35;9.55;;;1.00;;
12745;SDS011;6437;53.686;10.030;2023-04-25T12:23:38;10.25;;;1.40;;
12745;SDS011;6437;53.686;10.030;2023-04-25T12:25:42;14.68;;;1.30;;
12745;SDS011;6437;53.686;10.030;2023-04-25T12:27:44;15.88;;;1.02;;
12745;SDS011;6437;53.686;10.030;2023-04-25T12:29:52;12.20;;;0.82;;
12745;SDS011;6437;53.686;10.030;2023-04-25T12:31:56;17.65;;;1.90;;
12745;SDS011;6437;53.686;10.030;2023-04-25T12:36:02;15.77;;;1.40;;
12745;SDS011;6437;53.686;10.030;2023-04-25T12:38:08;19.27;;;1.25;;
12745;SDS011;6437;53.686;10.030;2023-04-25T12:40:10;11.18;;;0.52;;
12745;SDS011;6437;53.686;10.030;2023-04-25T12:42:13;14.70;;;1.52;;
12745;SDS011;6437;53.686;10.030;2023-04-25T12:44:15;7.35;;;0.93;;
12745;SDS011;6437;53.686;10.030;2023-04-25T12:46:17;11.07;;;1.63;;
12745;SDS011;6437;53.686;10.030;2023-04-25T12:48:19;11.00;;;1.33;;
12745;SDS011;6437;53.686;10.030;2023-04-25T12:50:22;9.75;;;0.93;;
12745;SDS011;6437;53.686;10.030;2023-04-25T12:52:24;11.00;;;1.30;;
12745;SDS011;6437;53.686;10.030;2023-04-25T12:54:26;9.60;;;1.85;;
12745;SDS011;6437;53.686;10.030;2023-04-25T12:56:27;11.68;;;2.33;;
12745;SDS011;6437;53.686;10.030;2023-04-25T12:58:29;9.65;;;0.90;;